sensor_id;sensor_type;location;lat;lon;timestamp;P1;durP1;ratioP1;P2;durP2;ratioP2
14235;SDS011;7202;50.718;7.072;2022-07-23T00:02:05;14.00;;;10.15;;
14235;SDS011;7202;50.718;7.072;2022-07-23T00:04:34;13.45;;;10.95;;
14235;SDS011;7202;50.718;7.072;2022-07-23T00:07:03;13.95;;;11.77;;
14235;SDS011;7202;50.718;7.072;2022-07-23T00:09:32;13.73;;;10.95;;
14235;SDS011;7202;50.718;7.072;2022-07-23T00:12:00;13.32;;;10.77;;
14235;SDS011;7202;50.718;7.072;2022-07-23T00:14:29;12.70;;;11.38;;
14235;SDS011;7202;50.718;7.072;2022-07-23T00:16:59;11.45;;;10.25;;
14235;SDS011;7202;50.718;7.072;2022-07-23T00:19:28;13.25;;;11.00;;
14235;SDS011;7202;50.718;7.072;2022-07-23T00:21:56;17.60;;;11.90;;
14235;SDS011;7202;50.718;7.072;2022-07-23T00:24:25;14.75;;;13.07;;
14235;SDS011;7202;50.718;7.072;2022-07-23T00:26:54;17.90;;;13.02;;
14235;SDS011;7202;50.718;7.072;2022-07-23T00:29:22;14.25;;;12.05;;
14235;SDS011;7202;50.718;7.072;2022-07-23T00:31:51;13.30;;;10.40;;
14235;SDS011;7202;50.718;7.072;2022-07-23T00:34:21;12.73;;;10.80;;
14235;SDS011;7202;50.718;7.072;2022-07-23T00:36:50;13.18;;;11.13;;
14235;SDS011;7202;50.718;7.072;2022-07-23T00:39:20;13.93;;;11.40;;
14235;SDS011;7202;50.718;7.072;2022-07-23T00:41:50;12.88;;;11.00;;
14235;SDS011;7202;50.718;7.072;2022-07-23T00:44:20;12.50;;;11.20;;
14235;SDS011;7202;50.718;7.072;2022-07-23T00:46:51;17.35;;;12.27;;
14235;SDS011;7202;50.718;7.072;2022-07-23T00:49:23;15.43;;;12.35;;
14235;SDS011;7202;50.718;7.072;2022-07-23T00:51:53;17.75;;;14.13;;
14235;SDS011;7202;50.718;7.072;2022-07-23T00:54:22;18.05;;;12.90;;
14235;SDS011;7202;50.718;7.072;2022-07-23T00:56:52;15.23;;;12.63;;
14235;SDS011;7202;50.718;7.072;2022-07-23T00:59:21;14.25;;;11.85;;
14235;SDS011;7202;50.718;7.072;2022-07-23T01:01:49;15.40;;;12.73;;
14235;SDS011;7202;50.718;7.072;2022-07-23T01:04:18;15.00;;;12.25;;
14235;SDS011;7202;50.718;7.072;2022-07-23T01:06:49;14.25;;;12.10;;
14235;SDS011;7202;50.718;7.072;2022-07-23T01:09:18;14.77;;;13.05;;
14235;SDS011;7202;50.718;7.072;2022-07-23T01:11:46;16.95;;;13.20;;
14235;SDS011;7202;50.718;7.072;2022-07-23T01:14:15;16.65;;;12.38;;
14235;SDS011;7202;50.718;7.072;2022-07-23T01:16:47;17.67;;;14.30;;
14235;SDS011;7202;50.718;7.072;2022-07-23T01:19:16;18.17;;;14.88;;
14235;SDS011;7202;50.718;7.072;2022-07-23T01:21:46;20.08;;;15.85;;
14235;SDS011;7202;50.718;7.072;2022-07-23T01:24:17;16.23;;;14.25;;
14235;SDS011;7202;50.718;7.072;2022-07-23T01:27:06;17.45;;;14.93;;
14235;SDS011;7202;50.718;7.072;2022-07-23T01:29:36;19.25;;;14.88;;
14235;SDS011;7202;50.718;7.072;2022-07-23T01:32:14;21.25;;;14.88;;
14235;SDS011;7202;50.718;7.072;2022-07-23T01:34:42;15.73;;;13.40;;
14235;SDS011;7202;50.718;7.072;2022-07-23T01:37:12;14.90;;;13.27;;
14235;SDS011;7202;50.718;7.072;2022-07-23T01:39:42;16.40;;;13.25;;
14235;SDS011;7202;50.718;7.072;2022-07-23T01:42:11;18.80;;;15.07;;
14235;SDS011;7202;50.718;7.072;2022-07-23T01:44:41;16.17;;;14.07;;
14235;SDS011;7202;50.718;7.072;2022-07-23T01:47:16;18.40;;;15.27;;
14235;SDS011;7202;50.718;7.072;2022-07-23T01:49:46;19.60;;;15.00;;
14235;SDS011;7202;50.718;7.072;2022-07-23T01:52:28;22.58;;;16.02;;
14235;SDS011;7202;50.718;7.072;2022-07-23T01:54:58;17.15;;;14.85;;
14235;SDS011;7202;50.718;7.072;2022-07-23T01:57:27;18.17;;;15.25;;
14235;SDS011;7202;50.718;7.072;2022-07-23T01:59:56;17.85;;;15.73;;
14235;SDS011;7202;50.718;7.072;2022-07-23T02:02:25;19.77;;;15.10;;
14235;SDS011;7202;50.718;7.072;2022-07-23T02:04:54;17.92;;;13.55;;
14235;SDS011;7202;50.718;7.072;2022-07-23T02:07:27;17.90;;;13.32;;
14235;SDS011;7202;50.718;7.072;2022-07-23T02:10:00;16.85;;;12.98;;
14235;SDS011;7202;50.718;7.072;2022-07-23T02:12:29;20.90;;;15.10;;
14235;SDS011;7202;50.718;7.072;2022-07-23T02:14:58;21.60;;;15.07;;
14235;SDS011;7202;50.718;7.072;2022-07-23T02:17:26;21.15;;;15.00;;
14235;SDS011;7202;50.718;7.072;2022-07-23T02:19:55;19.20;;;15.10;;
14235;SDS011;7202;50.718;7.072;2022-07-23T02:22:24;17.92;;;14.57;;
14235;SDS011;7202;50.718;7.072;2022-07-23T02:24:52;21.20;;;14.82;;
14235;SDS011;7202;50.718;7.072;2022-07-23T02:27:23;19.02;;;14.02;;
14235;SDS011;7202;50.718;7.072;2022-07-23T02:29:52;15.05;;;12.43;;
14235;SDS011;7202;50.718;7.072;2022-07-23T02:32:21;20.45;;;14.13;;
14235;SDS011;7202;50.718;7.072;2022-07-23T02:34:49;21.23;;;14.38;;
14235;SDS011;7202;50.718;7.072;2022-07-23T02:37:20;18.52;;;14.95;;
14235;SDS011;7202;50.718;7.072;2022-07-23T02:39:49;20.65;;;14.70;;
14235;SDS011;7202;50.718;7.072;2022-07-23T02:42:18;18.73;;;13.68;;
14235;SDS011;7202;50.718;7.072;2022-07-23T02:44:49;24.48;;;14.88;;
14235;SDS011;7202;50.718;7.072;2022-07-23T02:47:18;17.23;;;13.52;;
14235;SDS011;7202;50.718;7.072;2022-07-23T02:49:46;15.93;;;12.77;;
14235;SDS011;7202;50.718;7.072;2022-07-23T02:52:15;18.77;;;13.80;;
14235;SDS011;7202;50.718;7.072;2022-07-23T02:54:44;20.48;;;14.38;;
14235;SDS011;7202;50.718;7.072;2022-07-23T02:57:15;19.23;;;13.05;;
14235;SDS011;7202;50.718;7.072;2022-07-23T02:59:43;18.27;;;13.70;;
14235;SDS011;7202;50.718;7.072;2022-07-23T03:02:13;15.02;;;12.52;;
14235;SDS011;7202;50.718;7.072;2022-07-23T03:04:42;16.58;;;13.38;;
14235;SDS011;7202;50.718;7.072;2022-07-23T03:07:11;15.70;;;12.38;;
14235;SDS011;7202;50.718;7.072;2022-07-23T03:09:40;17.17;;;12.90;;
14235;SDS011;7202;50.718;7.072;2022-07-23T03:12:09;14.32;;;12.60;;
14235;SDS011;7202;50.718;7.072;2022-07-23T03:14:40;16.35;;;12.23;;
14235;SDS011;7202;50.718;7.072;2022-07-23T03:17:09;15.27;;;11.10;;
14235;SDS011;7202;50.718;7.072;2022-07-23T03:19:39;14.80;;;10.80;;
14235;SDS011;7202;50.718;7.072;2022-07-23T03:22:08;13.85;;;10.68;;
14235;SDS011;7202;50.718;7.072;2022-07-23T03:24:37;11.93;;;9.20;;
14235;SDS011;7202;50.718;7.072;2022-07-23T03:27:29;10.55;;;9.40;;
14235;SDS011;7202;50.718;7.072;2022-07-23T03:29:58;12.80;;;10.10;;
14235;SDS011;7202;50.718;7.072;2022-07-23T03:32:27;13.25;;;10.20;;
14235;SDS011;7202;50.718;7.072;2022-07-23T03:34:57;14.20;;;10.20;;
14235;SDS011;7202;50.718;7.072;2022-07-23T03:37:26;13.32;;;10.82;;
14235;SDS011;7202;50.718;7.072;2022-07-23T03:39:57;12.73;;;10.75;;
14235;SDS011;7202;50.718;7.072;2022-07-23T03:42:26;15.15;;;11.13;;
14235;SDS011;7202;50.718;7.072;2022-07-23T03:44:55;12.38;;;10.35;;
14235;SDS011;7202;50.718;7.072;2022-07-23T03:47:24;11.93;;;9.70;;
14235;SDS011;7202;50.718;7.072;2022-07-23T03:49:52;10.70;;;9.32;;
14235;SDS011;7202;50.718;7.072;2022-07-23T03:52:22;12.55;;;9.93;;
14235;SDS011;7202;50.718;7.072;2022-07-23T03:54:51;12.00;;;9.57;;
14235;SDS011;7202;50.718;7.072;2022-07-23T03:57:22;12.43;;;9.52;;
14235;SDS011;7202;50.718;7.072;2022-07-23T03:59:51;12.25;;;10.52;;
14235;SDS011;7202;50.718;7.072;2022-07-23T04:02:19;11.75;;;9.60;;
14235;SDS011;7202;50.718;7.072;2022-07-23T04:04:50;13.55;;;9.73;;
14235;SDS011;7202;50.718;7.072;2022-07-23T04:07:18;14.00;;;10.10;;
14235;SDS011;7202;50.718;7.072;2022-07-23T04:09:50;12.88;;;9.85;;
14235;SDS011;7202;50.718;7.072;2022-07-23T04:12:18;13.73;;;10.60;;
14235;SDS011;7202;50.718;7.072;2022-07-23T04:14:47;12.13;;;9.77;;
14235;SDS011;7202;50.718;7.072;2022-07-23T04:17:16;14.57;;;9.75;;
14235;SDS011;7202;50.718;7.072;2022-07-23T04:19:45;11.18;;;9.50;;
14235;SDS011;7202;50.718;7.072;2022-07-23T04:22:16;13.80;;;10.98;;
14235;SDS011;7202;50.718;7.072;2022-07-23T04:24:46;11.50;;;10.18;;
14235;SDS011;7202;50.718;7.072;2022-07-23T04:27:17;14.95;;;10.50;;
14235;SDS011;7202;50.718;7.072;2022-07-23T04:29:46;12.25;;;10.27;;
14235;SDS011;7202;50.718;7.072;2022-07-23T04:32:15;12.98;;;10.25;;
14235;SDS011;7202;50.718;7.072;2022-07-23T04:34:43;14.70;;;9.88;;
14235;SDS011;7202;50.718;7.072;2022-07-23T04:37:12;15.00;;;11.40;;
14235;SDS011;7202;50.718;7.072;2022-07-23T04:39:41;14.45;;;11.63;;
14235;SDS011;7202;50.718;7.072;2022-07-23T04:42:09;13.93;;;11.40;;
14235;SDS011;7202;50.718;7.072;2022-07-23T04:44:39;18.27;;;11.57;;
14235;SDS011;7202;50.718;7.072;2022-07-23T04:47:09;13.68;;;11.80;;
14235;SDS011;7202;50.718;7.072;2022-07-23T04:49:40;13.63;;;11.00;;
14235;SDS011;7202;50.718;7.072;2022-07-23T04:52:09;14.65;;;11.23;;
14235;SDS011;7202;50.718;7.072;2022-07-23T04:54:38;14.07;;;10.23;;
14235;SDS011;7202;50.718;7.072;2022-07-23T04:57:06;16.63;;;11.25;;
14235;SDS011;7202;50.718;7.072;2022-07-23T04:59:35;16.23;;;11.15;;
14235;SDS011;7202;50.718;7.072;2022-07-23T05:02:05;12.70;;;10.85;;
14235;SDS011;7202;50.718;7.072;2022-07-23T05:04:34;12.80;;;10.05;;
14235;SDS011;7202;50.718;7.072;2022-07-23T05:07:03;16.38;;;10.05;;
14235;SDS011;7202;50.718;7.072;2022-07-23T05:09:32;16.77;;;11.57;;
14235;SDS011;7202;50.718;7.072;2022-07-23T05:12:01;15.98;;;11.00;;
14235;SDS011;7202;50.718;7.072;2022-07-23T05:14:32;14.73;;;10.50;;
14235;SDS011;7202;50.718;7.072;2022-07-23T05:17:00;12.65;;;10.68;;
14235;SDS011;7202;50.718;7.072;2022-07-23T05:19:31;12.10;;;10.63;;
14235;SDS011;7202;50.718;7.072;2022-07-23T05:22:00;16.08;;;11.52;;
14235;SDS011;7202;50.718;7.072;2022-07-23T05:24:28;14.57;;;10.02;;
14235;SDS011;7202;50.718;7.072;2022-07-23T05:26:57;11.00;;;9.60;;
14235;SDS011;7202;50.718;7.072;2022-07-23T05:29:26;10.88;;;9.35;;
14235;SDS011;7202;50.718;7.072;2022-07-23T05:31:55;13.52;;;10.35;;
14235;SDS011;7202;50.718;7.072;2022-07-23T05:34:24;16.67;;;11.98;;
14235;SDS011;7202;50.718;7.072;2022-07-23T05:36:54;15.65;;;11.20;;
14235;SDS011;7202;50.718;7.072;2022-07-23T05:39:23;16.52;;;11.68;;
14235;SDS011;7202;50.718;7.072;2022-07-23T05:41:51;12.90;;;10.50;;
14235;SDS011;7202;50.718;7.072;2022-07-23T05:44:20;18.70;;;13.20;;
14235;SDS011;7202;50.718;7.072;2022-07-23T05:46:49;18.23;;;11.55;;
14235;SDS011;7202;50.718;7.072;2022-07-23T05:49:21;15.65;;;11.10;;
14235;SDS011;7202;50.718;7.072;2022-07-23T05:52:06;16.63;;;11.63;;
14235;SDS011;7202;50.718;7.072;2022-07-23T05:54:53;17.55;;;12.93;;
14235;SDS011;7202;50.718;7.072;2022-07-23T05:57:22;18.02;;;13.20;;
14235;SDS011;7202;50.718;7.072;2022-07-23T05:59:51;17.95;;;12.70;;
14235;SDS011;7202;50.718;7.072;2022-07-23T06:02:20;17.33;;;13.05;;
14235;SDS011;7202;50.718;7.072;2022-07-23T06:04:48;18.30;;;12.90;;
14235;SDS011;7202;50.718;7.072;2022-07-23T06:07:29;14.18;;;11.00;;
14235;SDS011;7202;50.718;7.072;2022-07-23T06:09:58;20.38;;;12.27;;
14235;SDS011;7202;50.718;7.072;2022-07-23T06:12:27;15.45;;;11.93;;
14235;SDS011;7202;50.718;7.072;2022-07-23T06:14:56;18.08;;;12.63;;
14235;SDS011;7202;50.718;7.072;2022-07-23T06:17:26;18.98;;;12.80;;
14235;SDS011;7202;50.718;7.072;2022-07-23T06:19:54;15.77;;;12.55;;
14235;SDS011;7202;50.718;7.072;2022-07-23T06:22:23;16.15;;;11.68;;
14235;SDS011;7202;50.718;7.072;2022-07-23T06:24:54;15.88;;;11.73;;
14235;SDS011;7202;50.718;7.072;2022-07-23T06:27:22;16.38;;;11.57;;
14235;SDS011;7202;50.718;7.072;2022-07-23T06:29:52;16.83;;;12.25;;
14235;SDS011;7202;50.718;7.072;2022-07-23T06:32:21;15.63;;;11.85;;
14235;SDS011;7202;50.718;7.072;2022-07-23T06:34:50;17.98;;;12.63;;
14235;SDS011;7202;50.718;7.072;2022-07-23T06:37:20;17.65;;;13.20;;
14235;SDS011;7202;50.718;7.072;2022-07-23T06:39:49;19.92;;;13.52;;
14235;SDS011;7202;50.718;7.072;2022-07-23T06:42:19;17.80;;;13.40;;
14235;SDS011;7202;50.718;7.072;2022-07-23T06:44:55;22.15;;;13.07;;
14235;SDS011;7202;50.718;7.072;2022-07-23T06:47:24;19.02;;;12.52;;
14235;SDS011;7202;50.718;7.072;2022-07-23T06:49:53;18.02;;;12.68;;
14235;SDS011;7202;50.718;7.072;2022-07-23T06:52:24;18.02;;;12.98;;
14235;SDS011;7202;50.718;7.072;2022-07-23T06:54:53;17.67;;;13.85;;
14235;SDS011;7202;50.718;7.072;2022-07-23T06:57:23;17.42;;;12.57;;
14235;SDS011;7202;50.718;7.072;2022-07-23T06:59:52;17.23;;;12.50;;
14235;SDS011;7202;50.718;7.072;2022-07-23T07:02:22;16.05;;;12.10;;
14235;SDS011;7202;50.718;7.072;2022-07-23T07:04:50;15.68;;;10.38;;
14235;SDS011;7202;50.718;7.072;2022-07-23T07:07:19;15.52;;;11.15;;
14235;SDS011;7202;50.718;7.072;2022-07-23T07:09:48;15.98;;;11.23;;
14235;SDS011;7202;50.718;7.072;2022-07-23T07:12:17;13.60;;;10.18;;
14235;SDS011;7202;50.718;7.072;2022-07-23T07:14:47;13.43;;;10.02;;
14235;SDS011;7202;50.718;7.072;2022-07-23T07:17:16;17.20;;;11.05;;
14235;SDS011;7202;50.718;7.072;2022-07-23T07:19:44;10.73;;;8.40;;
14235;SDS011;7202;50.718;7.072;2022-07-23T07:22:13;11.50;;;8.43;;
14235;SDS011;7202;50.718;7.072;2022-07-23T07:24:41;11.15;;;8.30;;
14235;SDS011;7202;50.718;7.072;2022-07-23T07:27:10;11.68;;;7.53;;
14235;SDS011;7202;50.718;7.072;2022-07-23T07:29:38;9.57;;;7.28;;
14235;SDS011;7202;50.718;7.072;2022-07-23T07:32:08;11.60;;;7.47;;
14235;SDS011;7202;50.718;7.072;2022-07-23T07:34:37;10.05;;;7.45;;
14235;SDS011;7202;50.718;7.072;2022-07-23T07:37:06;7.55;;;6.20;;
14235;SDS011;7202;50.718;7.072;2022-07-23T07:39:34;9.90;;;7.85;;
14235;SDS011;7202;50.718;7.072;2022-07-23T07:42:03;10.85;;;7.90;;
14235;SDS011;7202;50.718;7.072;2022-07-23T07:44:32;8.98;;;6.60;;
14235;SDS011;7202;50.718;7.072;2022-07-23T07:47:00;8.32;;;5.63;;
14235;SDS011;7202;50.718;7.072;2022-07-23T07:49:30;10.35;;;5.85;;
14235;SDS011;7202;50.718;7.072;2022-07-23T07:52:01;10.43;;;7.60;;
14235;SDS011;7202;50.718;7.072;2022-07-23T07:54:30;9.98;;;7.18;;
14235;SDS011;7202;50.718;7.072;2022-07-23T07:56:59;10.50;;;6.28;;
14235;SDS011;7202;50.718;7.072;2022-07-23T07:59:34;9.38;;;7.50;;
14235;SDS011;7202;50.718;7.072;2022-07-23T08:02:03;9.50;;;7.35;;
14235;SDS011;7202;50.718;7.072;2022-07-23T08:04:33;10.15;;;7.35;;
14235;SDS011;7202;50.718;7.072;2022-07-23T08:07:01;9.48;;;6.97;;
14235;SDS011;7202;50.718;7.072;2022-07-23T08:09:30;12.32;;;7.40;;
14235;SDS011;7202;50.718;7.072;2022-07-23T08:11:58;8.18;;;6.60;;
14235;SDS011;7202;50.718;7.072;2022-07-23T08:14:27;11.63;;;7.32;;
14235;SDS011;7202;50.718;7.072;2022-07-23T08:16:56;10.32;;;8.02;;
14235;SDS011;7202;50.718;7.072;2022-07-23T08:19:42;11.05;;;8.38;;
14235;SDS011;7202;50.718;7.072;2022-07-23T08:22:12;10.48;;;7.80;;
14235;SDS011;7202;50.718;7.072;2022-07-23T08:24:40;11.52;;;8.27;;
14235;SDS011;7202;50.718;7.072;2022-07-23T08:27:09;10.15;;;7.78;;
14235;SDS011;7202;50.718;7.072;2022-07-23T08:29:37;13.52;;;9.80;;
14235;SDS011;7202;50.718;7.072;2022-07-23T08:32:06;9.38;;;7.85;;
14235;SDS011;7202;50.718;7.072;2022-07-23T08:34:56;13.10;;;9.75;;
14235;SDS011;7202;50.718;7.072;2022-07-23T08:37:25;10.90;;;8.52;;
14235;SDS011;7202;50.718;7.072;2022-07-23T08:39:53;9.20;;;7.88;;
14235;SDS011;7202;50.718;7.072;2022-07-23T08:42:23;11.30;;;8.52;;
14235;SDS011;7202;50.718;7.072;2022-07-23T08:44:52;11.43;;;8.13;;
14235;SDS011;7202;50.718;7.072;2022-07-23T08:47:20;10.32;;;8.27;;
14235;SDS011;7202;50.718;7.072;2022-07-23T08:49:51;10.90;;;8.00;;
14235;SDS011;7202;50.718;7.072;2022-07-23T08:52:21;13.60;;;7.80;;
14235;SDS011;7202;50.718;7.072;2022-07-23T08:54:53;11.07;;;8.05;;
14235;SDS011;7202;50.718;7.072;2022-07-23T08:57:25;11.32;;;7.75;;
14235;SDS011;7202;50.718;7.072;2022-07-23T08:59:54;9.85;;;7.82;;
14235;SDS011;7202;50.718;7.072;2022-07-23T09:02:22;10.88;;;7.78;;
14235;SDS011;7202;50.718;7.072;2022-07-23T09:04:51;9.25;;;7.70;;
14235;SDS011;7202;50.718;7.072;2022-07-23T09:07:20;10.30;;;7.03;;
14235;SDS011;7202;50.718;7.072;2022-07-23T09:09:57;10.70;;;8.15;;
14235;SDS011;7202;50.718;7.072;2022-07-23T09:12:33;10.18;;;8.05;;
14235;SDS011;7202;50.718;7.072;2022-07-23T09:15:05;12.02;;;9.57;;
14235;SDS011;7202;50.718;7.072;2022-07-23T09:17:37;10.05;;;8.85;;
14235;SDS011;7202;50.718;7.072;2022-07-23T09:20:10;11.00;;;8.65;;
14235;SDS011;7202;50.718;7.072;2022-07-23T09:22:43;9.07;;;8.18;;
14235;SDS011;7202;50.718;7.072;2022-07-23T09:25:15;12.82;;;8.38;;
14235;SDS011;7202;50.718;7.072;2022-07-23T09:27:46;11.23;;;10.02;;
14235;SDS011;7202;50.718;7.072;2022-07-23T09:30:21;10.82;;;8.15;;
14235;SDS011;7202;50.718;7.072;2022-07-23T09:33:03;12.02;;;9.32;;
14235;SDS011;7202;50.718;7.072;2022-07-23T09:35:46;9.07;;;7.32;;
14235;SDS011;7202;50.718;7.072;2022-07-23T09:38:18;9.40;;;7.63;;
14235;SDS011;7202;50.718;7.072;2022-07-23T09:41:04;11.95;;;8.55;;
14235;SDS011;7202;50.718;7.072;2022-07-23T09:43:34;9.93;;;8.38;;
14235;SDS011;7202;50.718;7.072;2022-07-23T09:46:19;10.50;;;8.18;;
14235;SDS011;7202;50.718;7.072;2022-07-23T09:48:48;11.32;;;7.05;;
14235;SDS011;7202;50.718;7.072;2022-07-23T09:51:18;9.73;;;8.20;;
14235;SDS011;7202;50.718;7.072;2022-07-23T09:53:52;7.25;;;6.43;;
14235;SDS011;7202;50.718;7.072;2022-07-23T09:56:21;10.10;;;8.90;;
14235;SDS011;7202;50.718;7.072;2022-07-23T09:58:54;10.77;;;7.55;;
14235;SDS011;7202;50.718;7.072;2022-07-23T10:01:30;12.73;;;8.40;;
14235;SDS011;7202;50.718;7.072;2022-07-23T10:03:59;9.80;;;8.80;;
14235;SDS011;7202;50.718;7.072;2022-07-23T10:06:53;9.38;;;8.07;;
14235;SDS011;7202;50.718;7.072;2022-07-23T10:09:54;8.05;;;6.55;;
14235;SDS011;7202;50.718;7.072;2022-07-23T10:12:46;8.50;;;7.63;;
14235;SDS011;7202;50.718;7.072;2022-07-23T10:15:48;13.55;;;7.57;;
14235;SDS011;7202;50.718;7.072;2022-07-23T10:18:18;7.63;;;6.68;;
14235;SDS011;7202;50.718;7.072;2022-07-23T10:20:47;9.70;;;7.35;;
14235;SDS011;7202;50.718;7.072;2022-07-23T10:23:19;7.50;;;6.80;;
14235;SDS011;7202;50.718;7.072;2022-07-23T10:25:58;7.85;;;6.25;;
14235;SDS011;7202;50.718;7.072;2022-07-23T10:28:41;7.40;;;5.30;;
14235;SDS011;7202;50.718;7.072;2022-07-23T10:31:26;8.57;;;5.47;;
14235;SDS011;7202;50.718;7.072;2022-07-23T10:34:25;5.65;;;4.72;;
14235;SDS011;7202;50.718;7.072;2022-07-23T10:37:01;8.55;;;6.07;;
14235;SDS011;7202;50.718;7.072;2022-07-23T10:39:36;11.07;;;7.05;;
14235;SDS011;7202;50.718;7.072;2022-07-23T10:42:09;7.30;;;6.50;;
14235;SDS011;7202;50.718;7.072;2022-07-23T10:44:39;7.50;;;5.78;;
14235;SDS011;7202;50.718;7.072;2022-07-23T10:47:10;9.48;;;6.28;;
14235;SDS011;7202;50.718;7.072;2022-07-23T10:50:19;8.88;;;6.60;;
14235;SDS011;7202;50.718;7.072;2022-07-23T10:53:12;7.28;;;6.45;;
14235;SDS011;7202;50.718;7.072;2022-07-23T10:55:48;6.82;;;5.95;;
14235;SDS011;7202;50.718;7.072;2022-07-23T10:58:45;6.07;;;5.47;;
14235;SDS011;7202;50.718;7.072;2022-07-23T11:01:32;7.93;;;5.18;;
14235;SDS011;7202;50.718;7.072;2022-07-23T11:04:02;7.30;;;6.13;;
14235;SDS011;7202;50.718;7.072;2022-07-23T11:09:38;7.00;;;6.30;;
14235;SDS011;7202;50.718;7.072;2022-07-23T11:15:04;6.78;;;5.97;;
14235;SDS011;7202;50.718;7.072;2022-07-23T11:17:36;5.93;;;5.32;;
14235;SDS011;7202;50.718;7.072;2022-07-23T11:20:13;6.93;;;6.00;;
14235;SDS011;7202;50.718;7.072;2022-07-23T11:22:47;6.43;;;5.65;;
14235;SDS011;7202;50.718;7.072;2022-07-23T11:25:34;6.80;;;5.95;;
14235;SDS011;7202;50.718;7.072;2022-07-23T11:28:12;6.40;;;5.72;;
14235;SDS011;7202;50.718;7.072;2022-07-23T11:30:45;6.93;;;6.13;;
14235;SDS011;7202;50.718;7.072;2022-07-23T11:33:15;6.82;;;4.95;;
14235;SDS011;7202;50.718;7.072;2022-07-23T11:35:46;7.75;;;5.97;;
14235;SDS011;7202;50.718;7.072;2022-07-23T11:38:17;8.75;;;5.68;;
14235;SDS011;7202;50.718;7.072;2022-07-23T11:40:47;4.53;;;4.10;;
14235;SDS011;7202;50.718;7.072;2022-07-23T11:43:20;5.63;;;4.65;;
14235;SDS011;7202;50.718;7.072;2022-07-23T11:45:52;7.10;;;6.40;;
14235;SDS011;7202;50.718;7.072;2022-07-23T11:48:25;9.20;;;5.35;;
14235;SDS011;7202;50.718;7.072;2022-07-23T11:50:55;6.93;;;5.32;;
14235;SDS011;7202;50.718;7.072;2022-07-23T11:53:25;7.22;;;6.47;;
14235;SDS011;7202;50.718;7.072;2022-07-23T11:56:03;8.73;;;6.45;;
14235;SDS011;7202;50.718;7.072;2022-07-23T11:58:32;6.63;;;5.93;;
14235;SDS011;7202;50.718;7.072;2022-07-23T12:01:02;5.97;;;5.38;;
14235;SDS011;7202;50.718;7.072;2022-07-23T12:03:32;8.45;;;6.85;;
14235;SDS011;7202;50.718;7.072;2022-07-23T12:06:00;6.55;;;5.43;;
14235;SDS011;7202;50.718;7.072;2022-07-23T12:08:29;8.18;;;7.32;;
14235;SDS011;7202;50.718;7.072;2022-07-23T12:10:58;6.20;;;5.38;;
14235;SDS011;7202;50.718;7.072;2022-07-23T12:13:26;7.00;;;6.07;;
14235;SDS011;7202;50.718;7.072;2022-07-23T12:15:56;8.18;;;5.50;;
14235;SDS011;7202;50.718;7.072;2022-07-23T12:18:27;5.38;;;4.88;;
14235;SDS011;7202;50.718;7.072;2022-07-23T12:20:57;5.00;;;4.57;;
14235;SDS011;7202;50.718;7.072;2022-07-23T12:23:30;6.97;;;4.40;;
14235;SDS011;7202;50.718;7.072;2022-07-23T12:26:00;7.05;;;4.22;;
14235;SDS011;7202;50.718;7.072;2022-07-23T12:28:30;5.28;;;4.50;;
14235;SDS011;7202;50.718;7.072;2022-07-23T12:31:00;5.72;;;4.50;;
14235;SDS011;7202;50.718;7.072;2022-07-23T12:33:33;5.53;;;4.95;;
14235;SDS011;7202;50.718;7.072;2022-07-23T12:36:03;4.90;;;4.25;;
14235;SDS011;7202;50.718;7.072;2022-07-23T12:38:36;5.72;;;4.95;;
14235;SDS011;7202;50.718;7.072;2022-07-23T12:41:08;6.00;;;5.40;;
14235;SDS011;7202;50.718;7.072;2022-07-23T12:43:37;5.85;;;5.07;;
14235;SDS011;7202;50.718;7.072;2022-07-23T12:46:08;6.82;;;5.63;;
14235;SDS011;7202;50.718;7.072;2022-07-23T12:48:39;7.07;;;5.32;;
14235;SDS011;7202;50.718;7.072;2022-07-23T12:51:20;5.72;;;5.07;;
14235;SDS011;7202;50.718;7.072;2022-07-23T12:53:52;5.28;;;4.72;;
14235;SDS011;7202;50.718;7.072;2022-07-23T12:56:28;6.85;;;4.70;;
14235;SDS011;7202;50.718;7.072;2022-07-23T12:58:58;6.63;;;4.82;;
14235;SDS011;7202;50.718;7.072;2022-07-23T13:01:54;6.65;;;4.30;;
14235;SDS011;7202;50.718;7.072;2022-07-23T13:04:26;5.43;;;4.43;;
14235;SDS011;7202;50.718;7.072;2022-07-23T13:06:56;4.72;;;3.90;;
14235;SDS011;7202;50.718;7.072;2022-07-23T13:09:31;4.88;;;4.35;;
14235;SDS011;7202;50.718;7.072;2022-07-23T13:12:08;6.30;;;4.68;;
14235;SDS011;7202;50.718;7.072;2022-07-23T13:14:37;5.38;;;4.72;;
14235;SDS011;7202;50.718;7.072;2022-07-23T13:17:08;5.75;;;5.13;;
14235;SDS011;7202;50.718;7.072;2022-07-23T13:19:38;5.18;;;4.15;;
14235;SDS011;7202;50.718;7.072;2022-07-23T13:22:07;4.93;;;4.35;;
14235;SDS011;7202;50.718;7.072;2022-07-23T13:24:36;6.93;;;4.55;;
14235;SDS011;7202;50.718;7.072;2022-07-23T13:27:24;5.78;;;4.65;;
14235;SDS011;7202;50.718;7.072;2022-07-23T13:29:53;6.32;;;5.72;;
14235;SDS011;7202;50.718;7.072;2022-07-23T13:32:22;6.75;;;5.63;;
14235;SDS011;7202;50.718;7.072;2022-07-23T13:34:52;6.28;;;5.68;;
14235;SDS011;7202;50.718;7.072;2022-07-23T13:37:21;6.50;;;5.90;;
14235;SDS011;7202;50.718;7.072;2022-07-23T13:39:51;6.05;;;5.45;;
14235;SDS011;7202;50.718;7.072;2022-07-23T13:42:19;7.05;;;5.28;;
14235;SDS011;7202;50.718;7.072;2022-07-23T13:44:49;7.25;;;5.40;;
14235;SDS011;7202;50.718;7.072;2022-07-23T13:47:18;8.55;;;6.65;;
14235;SDS011;7202;50.718;7.072;2022-07-23T13:49:46;8.10;;;5.82;;
14235;SDS011;7202;50.718;7.072;2022-07-23T13:52:17;8.02;;;5.65;;
14235;SDS011;7202;50.718;7.072;2022-07-23T13:54:45;6.20;;;5.60;;
14235;SDS011;7202;50.718;7.072;2022-07-23T13:57:15;6.90;;;5.20;;
14235;SDS011;7202;50.718;7.072;2022-07-23T13:59:44;6.05;;;4.78;;
14235;SDS011;7202;50.718;7.072;2022-07-23T14:02:12;8.23;;;4.93;;
14235;SDS011;7202;50.718;7.072;2022-07-23T14:04:47;6.10;;;4.53;;
14235;SDS011;7202;50.718;7.072;2022-07-23T14:07:17;6.65;;;5.97;;
14235;SDS011;7202;50.718;7.072;2022-07-23T14:09:46;6.57;;;5.38;;
14235;SDS011;7202;50.718;7.072;2022-07-23T14:12:15;8.60;;;5.38;;
14235;SDS011;7202;50.718;7.072;2022-07-23T14:14:44;6.88;;;5.53;;
14235;SDS011;7202;50.718;7.072;2022-07-23T14:17:12;7.00;;;5.65;;
14235;SDS011;7202;50.718;7.072;2022-07-23T14:19:41;5.78;;;5.20;;
14235;SDS011;7202;50.718;7.072;2022-07-23T14:22:10;10.88;;;5.70;;
14235;SDS011;7202;50.718;7.072;2022-07-23T14:24:40;6.22;;;5.10;;
14235;SDS011;7202;50.718;7.072;2022-07-23T14:27:09;6.00;;;4.63;;
14235;SDS011;7202;50.718;7.072;2022-07-23T14:29:38;5.30;;;4.50;;
14235;SDS011;7202;50.718;7.072;2022-07-23T14:32:06;5.63;;;4.70;;
14235;SDS011;7202;50.718;7.072;2022-07-23T14:34:35;5.00;;;4.25;;
14235;SDS011;7202;50.718;7.072;2022-07-23T14:37:04;4.93;;;4.50;;
14235;SDS011;7202;50.718;7.072;2022-07-23T14:39:33;5.20;;;4.50;;
14235;SDS011;7202;50.718;7.072;2022-07-23T14:42:03;6.22;;;4.22;;
14235;SDS011;7202;50.718;7.072;2022-07-23T14:44:32;4.93;;;4.28;;
14235;SDS011;7202;50.718;7.072;2022-07-23T14:47:02;5.90;;;4.55;;
14235;SDS011;7202;50.718;7.072;2022-07-23T14:49:33;6.32;;;4.40;;
14235;SDS011;7202;50.718;7.072;2022-07-23T14:52:02;5.03;;;4.53;;
14235;SDS011;7202;50.718;7.072;2022-07-23T14:54:32;4.38;;;3.92;;
14235;SDS011;7202;50.718;7.072;2022-07-23T14:57:03;4.40;;;4.00;;
14235;SDS011;7202;50.718;7.072;2022-07-23T14:59:36;4.32;;;3.83;;
14235;SDS011;7202;50.718;7.072;2022-07-23T15:02:06;4.70;;;4.28;;
14235;SDS011;7202;50.718;7.072;2022-07-23T15:04:35;4.15;;;3.60;;
14235;SDS011;7202;50.718;7.072;2022-07-23T15:07:04;5.32;;;4.20;;
14235;SDS011;7202;50.718;7.072;2022-07-23T15:09:35;5.65;;;4.13;;
14235;SDS011;7202;50.718;7.072;2022-07-23T15:12:05;5.32;;;3.92;;
14235;SDS011;7202;50.718;7.072;2022-07-23T15:14:54;5.38;;;4.28;;
14235;SDS011;7202;50.718;7.072;2022-07-23T15:17:23;4.78;;;3.85;;
14235;SDS011;7202;50.718;7.072;2022-07-23T15:19:52;4.75;;;3.80;;